createdAt,value
2022-10-29T00:01:06.225Z,98604.82
2022-10-29T00:03:40.586Z,98605.85
2022-10-29T00:06:12.024Z,98604.38
2022-10-29T00:08:41.555Z,98596.42
2022-10-29T00:11:13.466Z,98597.61
2022-10-29T00:13:42.999Z,98600.77
2022-10-29T00:16:10.773Z,98599.14
2022-10-29T00:18:40.298Z,98604.13
2022-10-29T00:21:11.181Z,98609.27
2022-10-29T00:23:39.025Z,98608.72
2022-10-29T00:26:07.564Z,98611.67
2022-10-29T00:28:36.129Z,98614.05
2022-10-29T00:31:19.080Z,98608.27
2022-10-29T00:33:47.134Z,98610.17
2022-10-29T00:36:24.541Z,98611.63
2022-10-29T00:38:52.917Z,98606.39
2022-10-29T00:41:27.181Z,98583.80
2022-10-29T00:44:29.044Z,98611.27
2022-10-29T00:47:10.532Z,98611.00
2022-10-29T00:49:39.733Z,98613.10
2022-10-29T00:52:09.426Z,98611.28
2022-10-29T00:54:42.764Z,98603.96
2022-10-29T00:57:20.969Z,98599.95
2022-10-29T00:59:50.314Z,98596.98
2022-10-29T01:02:18.774Z,98594.45
2022-10-29T01:04:47.144Z,98591.80
2022-10-29T01:07:15.347Z,98589.38
2022-10-29T01:09:43.325Z,98585.70
2022-10-29T01:12:35.463Z,98581.00
2022-10-29T01:15:06.510Z,98581.75
2022-10-29T01:18:09.993Z,98582.76
2022-10-29T01:21:08.727Z,98574.45
2022-10-29T01:23:50.495Z,98571.57
2022-10-29T01:27:00.115Z,98576.41
2022-10-29T01:29:34.132Z,98578.20
2022-10-29T01:32:11.252Z,98577.84
2022-10-29T01:34:43.785Z,98575.86
2022-10-29T01:37:21.796Z,98572.80
2022-10-29T01:39:58.531Z,98564.27
2022-10-29T01:42:37.130Z,98561.27
2022-10-29T01:45:32.185Z,98561.39
2022-10-29T01:48:04.671Z,98558.70
2022-10-29T01:50:34.351Z,98562.48
2022-10-29T01:53:05.061Z,98559.26
2022-10-29T01:55:37.373Z,98564.20
2022-10-29T01:58:07.009Z,98565.23
2022-10-29T02:00:50.385Z,98566.69
2022-10-29T02:03:30.185Z,98562.92
2022-10-29T02:06:52.736Z,98553.80
2022-10-29T02:09:30.353Z,98547.96
2022-10-29T02:12:05.185Z,98542.64
2022-10-29T02:15:04.390Z,98542.86
2022-10-29T02:17:33.749Z,98544.73
2022-10-29T02:20:11.935Z,98549.86
2022-10-29T02:22:39.779Z,98555.56
2022-10-29T02:25:08.683Z,98560.34
2022-10-29T02:27:37.316Z,98566.09
2022-10-29T02:30:06.240Z,98568.39
2022-10-29T02:32:34.123Z,98556.09
2022-10-29T02:35:02.221Z,98555.13
2022-10-29T02:37:30.130Z,98544.20
2022-10-29T02:39:58.129Z,98541.62
2022-10-29T02:42:26.051Z,98544.04
2022-10-29T02:44:53.845Z,98541.98
2022-10-29T02:47:21.777Z,98539.82
2022-10-29T02:49:49.571Z,98540.63
2022-10-29T02:52:17.405Z,98540.80
2022-10-29T02:54:45.262Z,98540.74
2022-10-29T02:57:13.089Z,98540.10
2022-10-29T02:59:40.935Z,98542.19
2022-10-29T03:02:08.864Z,98538.77
2022-10-29T03:04:39.364Z,98537.13
2022-10-29T03:07:07.223Z,98537.77
2022-10-29T03:09:35.160Z,98538.16
2022-10-29T03:12:03.140Z,98543.19
2022-10-29T03:14:31.054Z,98540.18
2022-10-29T03:16:58.876Z,98537.24
2022-10-29T03:19:26.880Z,98532.41
2022-10-29T03:21:54.750Z,98530.31
2022-10-29T03:24:22.607Z,98528.91
2022-10-29T03:26:50.421Z,98536.70
2022-10-29T03:29:18.249Z,98537.02
2022-10-29T03:31:46.084Z,98520.33
2022-10-29T03:34:13.898Z,98526.23
2022-10-29T03:36:41.692Z,98530.86
2022-10-29T03:39:09.476Z,98525.89
2022-10-29T03:41:37.295Z,98518.37
2022-10-29T03:44:05.246Z,98516.65
2022-10-29T03:46:34.258Z,98520.40
2022-10-29T03:49:02.082Z,98527.48
2022-10-29T03:51:29.999Z,98535.60
2022-10-29T03:53:57.780Z,98538.16
2022-10-29T03:56:25.611Z,98539.02
2022-10-29T03:58:53.398Z,98538.33
2022-10-29T04:01:21.314Z,98539.78
2022-10-29T04:03:49.321Z,98544.55
2022-10-29T04:06:18.412Z,98541.06
2022-10-29T04:08:46.314Z,98549.33
2022-10-29T04:11:14.677Z,98550.05
2022-10-29T04:13:42.610Z,98549.35
2022-10-29T04:16:10.431Z,98544.67
2022-10-29T04:18:38.277Z,98539.02
2022-10-29T04:22:51.379Z,98542.83
2022-10-29T04:27:21.307Z,98551.84
2022-10-29T04:29:33.669Z,98529.16
2022-10-29T04:32:01.433Z,98529.20
2022-10-29T04:34:29.295Z,98524.35
2022-10-29T04:36:57.139Z,98527.52
2022-10-29T04:39:25.007Z,98522.09
2022-10-29T04:41:52.820Z,98526.69
2022-10-29T04:44:22.349Z,98531.46
2022-10-29T04:46:50.194Z,98532.73
2022-10-29T04:49:18.108Z,98520.72
2022-10-29T04:51:46.003Z,98522.69
2022-10-29T04:54:13.836Z,98528.98
2022-10-29T04:56:41.867Z,98537.68
2022-10-29T04:59:34.807Z,98534.34
2022-10-29T05:02:02.638Z,98538.04
2022-10-29T05:04:30.524Z,98532.81
2022-10-29T05:06:58.335Z,98531.18
2022-10-29T05:09:26.136Z,98528.41
2022-10-29T05:11:53.974Z,98516.08
2022-10-29T05:14:21.825Z,98512.07
2022-10-29T05:16:49.604Z,98504.67
2022-10-29T05:19:17.416Z,98496.57
2022-10-29T05:21:45.277Z,98510.64
2022-10-29T05:24:13.113Z,98521.52
2022-10-29T05:26:40.909Z,98506.64
2022-10-29T05:29:08.711Z,98517.45
2022-10-29T05:31:36.514Z,98528.95
2022-10-29T05:34:04.347Z,98526.15
2022-10-29T05:36:32.111Z,98527.21
2022-10-29T05:38:59.978Z,98530.96
2022-10-29T05:41:27.931Z,98558.20
2022-10-29T05:43:55.902Z,98563.52
2022-10-29T05:46:23.714Z,98544.42
2022-10-29T05:48:51.454Z,98541.50
2022-10-29T05:51:19.320Z,98548.83
2022-10-29T05:53:47.984Z,98537.14
2022-10-29T05:56:16.174Z,98538.05
2022-10-29T05:58:43.938Z,98533.58
2022-10-29T06:01:12.046Z,98538.61
2022-10-29T06:03:40.174Z,98534.63
2022-10-29T06:06:08.137Z,98535.58
2022-10-29T06:08:36.014Z,98527.23
2022-10-29T06:11:04.692Z,98523.64
2022-10-29T06:13:32.618Z,98524.83
2022-10-29T06:16:00.945Z,98522.23
2022-10-29T06:18:29.300Z,98527.60
2022-10-29T06:21:00.830Z,98527.73
2022-10-29T06:23:29.420Z,98524.95
2022-10-29T06:26:01.172Z,98519.81
2022-10-29T06:28:33.667Z,98525.63
2022-10-29T06:31:03.368Z,98529.91
2022-10-29T06:33:31.907Z,98537.34
2022-10-29T06:36:01.637Z,98543.23
2022-10-29T06:38:29.647Z,98549.23
2022-10-29T06:40:57.626Z,98558.05
2022-10-29T06:43:25.681Z,98560.56
2022-10-29T06:45:53.607Z,98553.84
2022-10-29T06:48:22.709Z,98559.70
2022-10-29T06:50:51.400Z,98562.95
2022-10-29T06:53:19.736Z,98573.69
2022-10-29T06:55:47.569Z,98582.46
2022-10-29T06:58:17.252Z,98581.77
2022-10-29T07:00:46.098Z,98583.58
2022-10-29T07:03:15.340Z,98582.09
2022-10-29T07:05:43.309Z,98584.56
2022-10-29T07:08:12.245Z,98584.39
2022-10-29T07:10:40.477Z,98584.87
2022-10-29T07:13:09.473Z,98586.80
2022-10-29T07:15:37.310Z,98586.19
2022-10-29T07:18:07.111Z,98589.13
2022-10-29T07:20:37.987Z,98594.69
2022-10-29T07:23:06.371Z,98595.50
2022-10-29T07:25:36.096Z,98594.40
2022-10-29T07:28:12.951Z,98593.55
2022-10-29T07:30:41.572Z,98594.23
2022-10-29T07:33:09.851Z,98595.55
2022-10-29T07:35:38.399Z,98598.89
2022-10-29T07:38:10.784Z,98603.48
2022-10-29T07:40:40.939Z,98606.77
2022-10-29T07:43:09.177Z,98612.55
2022-10-29T07:45:37.659Z,98612.91
2022-10-29T07:48:07.978Z,98609.96
2022-10-29T07:50:37.897Z,98614.42
2022-10-29T07:53:07.027Z,98617.98
2022-10-29T07:55:35.825Z,98614.46
2022-10-29T07:58:06.470Z,98616.38
2022-10-29T08:00:37.976Z,98620.43
2022-10-29T08:03:07.198Z,98621.41
2022-10-29T08:05:35.419Z,98623.27
2022-10-29T08:08:04.164Z,98617.26
2022-10-29T08:10:33.416Z,98619.95
2022-10-29T08:13:03.466Z,98619.68
2022-10-29T08:15:33.499Z,98619.15
2022-10-29T08:18:04.983Z,98620.85
2022-10-29T08:20:32.864Z,98623.48
2022-10-29T08:23:01.625Z,98624.82
2022-10-29T08:25:30.151Z,98623.93
2022-10-29T08:27:59.686Z,98630.58
2022-10-29T08:30:28.338Z,98626.81
2022-10-29T08:32:56.603Z,98624.27
2022-10-29T08:35:24.904Z,98628.70
2022-10-29T08:37:52.830Z,98633.90
2022-10-29T08:40:23.603Z,98630.31
2022-10-29T08:42:54.438Z,98635.29
2022-10-29T08:45:30.491Z,98634.89
2022-10-29T08:48:06.712Z,98626.03
2022-10-29T08:50:41.375Z,98628.74
2022-10-29T08:53:23.575Z,98632.37
2022-10-29T08:55:51.889Z,98628.34
2022-10-29T08:58:45.490Z,98629.73
2022-10-29T09:01:13.667Z,98624.59
2022-10-29T09:03:41.668Z,98620.12
2022-10-29T09:06:31.783Z,98614.50
2022-10-29T09:09:11.078Z,98612.70
2022-10-29T09:11:39.135Z,98619.55
2022-10-29T09:14:31.478Z,98614.23
2022-10-29T09:17:19.151Z,98612.17
2022-10-29T09:19:49.670Z,98612.36
2022-10-29T09:23:03.937Z,98623.27
2022-10-29T09:25:44.382Z,98620.58
2022-10-29T09:28:59.715Z,98618.27
2022-10-29T09:31:37.744Z,98612.21
2022-10-29T09:34:18.265Z,98612.97
2022-10-29T09:36:48.211Z,98613.04
2022-10-29T09:39:31.595Z,98607.70
2022-10-29T09:42:10.756Z,98612.59
2022-10-29T09:44:48.341Z,98624.07
2022-10-29T09:47:19.094Z,98626.30
2022-10-29T09:49:49.509Z,98621.84
2022-10-29T09:52:24.182Z,98610.94
2022-10-29T09:54:54.036Z,98612.11
2022-10-29T09:57:29.510Z,98606.57
2022-10-29T10:00:01.894Z,98609.46
2022-10-29T10:02:49.858Z,98603.30
2022-10-29T10:05:25.342Z,98608.35
2022-10-29T10:08:06.979Z,98598.52
2022-10-29T10:10:39.331Z,98604.29
2022-10-29T10:13:17.209Z,98592.69
2022-10-29T10:15:59.131Z,98588.31
2022-10-29T10:18:30.950Z,98593.56
2022-10-29T10:21:01.933Z,98591.99
2022-10-29T10:23:53.740Z,98586.02
2022-10-29T10:26:32.917Z,98579.63
2022-10-29T10:29:06.965Z,98576.73
2022-10-29T10:31:34.786Z,98582.61
2022-10-29T10:34:16.695Z,98581.27
2022-10-29T10:37:05.344Z,98576.79
2022-10-29T10:39:39.215Z,98566.41
2022-10-29T10:42:15.928Z,98563.11
2022-10-29T10:44:53.098Z,98561.20
2022-10-29T10:47:34.007Z,98556.55
2022-10-29T10:50:32.869Z,98554.33
2022-10-29T10:53:15.536Z,98552.13
2022-10-29T10:55:57.589Z,98554.11
2022-10-29T10:58:39.210Z,98548.39
2022-10-29T11:01:25.045Z,98540.84
2022-10-29T11:04:19.061Z,98533.32
2022-10-29T11:06:50.929Z,98533.52
2022-10-29T11:09:40.384Z,98546.77
2022-10-29T11:12:44.358Z,98544.41
2022-10-29T11:15:15.094Z,98535.26
2022-10-29T11:17:57.559Z,98532.79
2022-10-29T11:20:35.477Z,98526.19
2022-10-29T11:23:34.353Z,98526.80
2022-10-29T11:26:13.386Z,98525.45
2022-10-29T11:28:55.480Z,98524.80
2022-10-29T11:31:36.560Z,98530.05
2022-10-29T11:34:04.412Z,98523.83
2022-10-29T11:36:43.446Z,98530.79
2022-10-29T11:39:39.266Z,98532.52
2022-10-29T11:42:10.011Z,98523.50
2022-10-29T11:44:40.237Z,98518.39
2022-10-29T11:47:38.057Z,98521.50
2022-10-29T11:50:31.022Z,98517.84
2022-10-29T11:53:06.478Z,98521.81
2022-10-29T11:55:43.149Z,98533.90
2022-10-29T11:58:37.996Z,98530.11
2022-10-29T12:01:36.401Z,98531.23
2022-10-29T12:04:14.929Z,98531.44
2022-10-29T12:06:55.050Z,98530.84
2022-10-29T12:09:57.754Z,98526.32
2022-10-29T12:12:28.707Z,98521.52
2022-10-29T12:15:09.184Z,98515.77
2022-10-29T12:18:02.602Z,98512.32
2022-10-29T12:20:51.161Z,98514.90
2022-10-29T12:23:28.075Z,98509.27
2022-10-29T12:26:00.739Z,98501.27
2022-10-29T12:28:59.502Z,98494.49
2022-10-29T12:31:31.782Z,98495.87
2022-10-29T12:34:05.771Z,98498.84
2022-10-29T12:36:39.944Z,98491.70
2022-10-29T12:39:14.312Z,98490.83
2022-10-29T12:41:51.640Z,98481.80
2022-10-29T12:44:29.807Z,98485.71
2022-10-29T12:47:29.998Z,98492.25
2022-10-29T12:50:16.169Z,98493.54
2022-10-29T12:52:50.098Z,98492.63
2022-10-29T12:55:19.419Z,98488.56
2022-10-29T12:57:47.485Z,98489.75
2022-10-29T13:00:24.379Z,98500.45
2022-10-29T13:02:54.050Z,98493.18
2022-10-29T13:05:34.179Z,98487.01
2022-10-29T13:08:02.101Z,98481.49
2022-10-29T13:10:33.055Z,98480.42
2022-10-29T13:13:19.635Z,98482.92
2022-10-29T13:15:56.647Z,98482.79
2022-10-29T13:18:48.876Z,98489.29
2022-10-29T13:21:55.009Z,98486.35
2022-10-29T13:24:23.713Z,98486.14
2022-10-29T13:26:57.892Z,98486.84
2022-10-29T13:29:51.404Z,98482.27
2022-10-29T13:32:36.764Z,98481.27
2022-10-29T13:35:18.070Z,98478.54
2022-10-29T13:38:14.023Z,98476.59
2022-10-29T13:41:12.015Z,98477.39
2022-10-29T13:43:43.093Z,98481.41
2022-10-29T13:46:13.736Z,98485.09
2022-10-29T13:48:43.890Z,98482.42
2022-10-29T13:51:19.630Z,98476.95
2022-10-29T13:53:56.019Z,98479.11
2022-10-29T13:56:49.140Z,98479.55
2022-10-29T13:59:23.327Z,98483.48
2022-10-29T14:02:01.366Z,98481.42
2022-10-29T14:04:38.919Z,98482.08
2022-10-29T14:07:14.844Z,98472.81
2022-10-29T14:09:45.932Z,98463.92
2022-10-29T14:12:20.696Z,98458.54
2022-10-29T14:15:04.111Z,98461.10
2022-10-29T14:17:32.106Z,98457.61
2022-10-29T14:20:20.972Z,98457.64
2022-10-29T14:22:48.775Z,98456.06
2022-10-29T14:25:30.313Z,98454.13
2022-10-29T14:28:32.717Z,98453.87
2022-10-29T14:31:28.512Z,98449.26
2022-10-29T14:34:27.381Z,98449.09
2022-10-29T14:37:11.933Z,98450.21
2022-10-29T14:40:05.229Z,98455.39
2022-10-29T14:42:43.308Z,98443.70
2022-10-29T14:45:32.013Z,98458.94
2022-10-29T14:48:10.760Z,98452.72
2022-10-29T14:50:45.635Z,98463.09
2022-10-29T14:53:40.832Z,98469.30
2022-10-29T14:56:11.977Z,98465.37
2022-10-29T14:58:41.620Z,98468.40
2022-10-29T15:01:20.956Z,98470.48
2022-10-29T15:04:02.947Z,98469.04
2022-10-29T15:06:31.032Z,98469.63
2022-10-29T15:09:04.360Z,98467.42
2022-10-29T15:12:08.947Z,98473.66
2022-10-29T15:14:52.913Z,98473.52
2022-10-29T15:17:27.551Z,98481.20
2022-10-29T15:19:59.424Z,98486.13
2022-10-29T15:22:40.703Z,98489.92
2022-10-29T15:25:23.422Z,98486.24
2022-10-29T15:27:53.287Z,98481.93
2022-10-29T15:30:28.392Z,98482.02
2022-10-29T15:33:01.540Z,98483.54
2022-10-29T15:35:30.106Z,98483.72
2022-10-29T15:37:58.029Z,98488.21
2022-10-29T15:40:26.189Z,98481.90
2022-10-29T15:42:55.051Z,98482.14
2022-10-29T15:45:28.431Z,98486.70
2022-10-29T15:48:17.858Z,98487.02
2022-10-29T15:50:46.237Z,98483.63
2022-10-29T15:53:16.408Z,98482.75
2022-10-29T15:55:44.828Z,98481.13
2022-10-29T15:58:16.118Z,98481.09
2022-10-29T16:00:44.467Z,98479.48
2022-10-29T16:03:16.920Z,98481.06
2022-10-29T16:05:48.856Z,98480.08
2022-10-29T16:08:29.968Z,98485.11
2022-10-29T16:11:00.127Z,98481.66
2022-10-29T16:13:30.452Z,98491.59
2022-10-29T16:15:58.358Z,98488.09
2022-10-29T16:18:26.840Z,98491.54
2022-10-29T16:21:01.116Z,98485.84
2022-10-29T16:23:28.950Z,98481.98
2022-10-29T16:25:56.826Z,98478.94
2022-10-29T16:28:24.728Z,98479.86
2022-10-29T16:30:55.848Z,98477.43
2022-10-29T16:33:23.777Z,98471.77
2022-10-29T16:35:51.630Z,98472.65
2022-10-29T16:38:19.431Z,98480.95
2022-10-29T16:40:47.364Z,98485.51
2022-10-29T16:43:15.187Z,98485.11
2022-10-29T16:45:43.021Z,98495.02
2022-10-29T16:48:10.923Z,98493.44
2022-10-29T16:50:38.813Z,98491.60
2022-10-29T16:53:10.601Z,98488.32
2022-10-29T16:55:40.552Z,98487.58
2022-10-29T16:58:15.149Z,98485.98
2022-10-29T17:00:43.245Z,98482.92
2022-10-29T17:03:13.408Z,98478.38
2022-10-29T17:05:43.913Z,98482.46
2022-10-29T17:08:12.897Z,98481.53
2022-10-29T17:10:41.101Z,98484.92
2022-10-29T17:13:11.358Z,98489.66
2022-10-29T17:15:42.390Z,98496.50
2022-10-29T17:18:10.949Z,98489.59
2022-10-29T17:20:38.788Z,98488.02
2022-10-29T17:23:07.150Z,98486.57
2022-10-29T17:25:35.043Z,98492.70
2022-10-29T17:28:02.862Z,98493.41
2022-10-29T17:30:30.730Z,98493.73
2022-10-29T17:32:58.788Z,98493.13
2022-10-29T17:35:27.040Z,98491.88
2022-10-29T17:37:54.924Z,98485.43
2022-10-29T17:40:24.239Z,98488.86
2022-10-29T17:42:52.156Z,98484.11
2022-10-29T17:45:22.743Z,98483.67
2022-10-29T17:47:58.106Z,98485.92
2022-10-29T17:50:26.548Z,98484.52
2022-10-29T17:52:55.146Z,98482.10
2022-10-29T17:55:23.010Z,98491.53
2022-10-29T17:57:50.981Z,98494.44
2022-10-29T18:00:19.339Z,98486.67
2022-10-29T18:02:51.308Z,98481.29
2022-10-29T18:05:19.553Z,98480.41
2022-10-29T18:07:47.510Z,98479.48
2022-10-29T18:10:16.941Z,98480.52
2022-10-29T18:12:44.842Z,98478.96
2022-10-29T18:15:12.716Z,98475.91
2022-10-29T18:17:40.938Z,98473.47
2022-10-29T18:20:09.839Z,98478.12
2022-10-29T18:22:37.888Z,98478.51
2022-10-29T18:25:06.077Z,98477.21
2022-10-29T18:27:34.025Z,98481.66
2022-10-29T18:30:02.206Z,98482.09
2022-10-29T18:32:30.045Z,98489.13
2022-10-29T18:34:58.020Z,98492.77
2022-10-29T18:37:25.920Z,98490.41
2022-10-29T18:39:56.365Z,98486.15
2022-10-29T18:42:24.231Z,98490.36
2022-10-29T18:44:52.079Z,98489.77
2022-10-29T18:47:19.906Z,98489.17
2022-10-29T18:49:47.781Z,98488.73
2022-10-29T18:52:15.686Z,98489.96
2022-10-29T18:54:43.560Z,98485.45
2022-10-29T18:57:15.350Z,98479.37
2022-10-29T18:59:46.398Z,98482.73
2022-10-29T19:02:14.340Z,98487.79
2022-10-29T19:04:42.265Z,98492.35
2022-10-29T19:07:10.112Z,98490.90
2022-10-29T19:09:38.112Z,98487.27
2022-10-29T19:12:06.258Z,98485.95
2022-10-29T19:14:34.097Z,98478.42
2022-10-29T19:17:02.008Z,98473.31
2022-10-29T19:19:29.892Z,98472.45
2022-10-29T19:21:57.770Z,98474.92
2022-10-29T19:24:25.646Z,98471.78
2022-10-29T19:26:54.188Z,98468.65
2022-10-29T19:29:22.295Z,98466.89
2022-10-29T19:31:50.169Z,98469.31
2022-10-29T19:34:18.136Z,98472.65
2022-10-29T19:36:46.008Z,98474.05
2022-10-29T19:39:14.279Z,98473.74
2022-10-29T19:41:42.205Z,98469.45
2022-10-29T19:44:10.124Z,98470.45
2022-10-29T19:46:38.075Z,98474.96
2022-10-29T19:49:05.948Z,98471.94
2022-10-29T19:51:33.763Z,98471.08
2022-10-29T19:54:04.095Z,98468.54
2022-10-29T19:56:33.086Z,98465.05
2022-10-29T19:59:01.015Z,98468.27
2022-10-29T20:01:29.054Z,98475.69
2022-10-29T20:03:58.307Z,98477.55
2022-10-29T20:06:26.276Z,98484.80
2022-10-29T20:08:54.197Z,98487.48
2022-10-29T20:11:22.027Z,98483.98
2022-10-29T20:13:50.753Z,98479.59
2022-10-29T20:16:20.557Z,98485.04
2022-10-29T20:18:50.401Z,98485.64
2022-10-29T20:21:18.276Z,98482.60
2022-10-29T20:23:46.394Z,98480.88
2022-10-29T20:26:14.325Z,98485.55
2022-10-29T20:28:42.200Z,98482.53
2022-10-29T20:31:27.810Z,98482.95
2022-10-29T20:33:59.533Z,98486.46
2022-10-29T20:36:30.728Z,98487.16
2022-10-29T20:38:58.996Z,98488.57
2022-10-29T20:41:28.331Z,98486.05
2022-10-29T20:44:01.445Z,98483.09
2022-10-29T20:46:29.811Z,98485.92
2022-10-29T20:48:57.800Z,98488.16
2022-10-29T20:51:26.562Z,98486.93
2022-10-29T20:53:55.182Z,98492.28
2022-10-29T20:56:26.334Z,98499.98
2022-10-29T20:58:55.167Z,98496.59
2022-10-29T21:01:24.803Z,98492.77
2022-10-29T21:03:53.042Z,98490.23
2022-10-29T21:06:21.535Z,98494.84
2022-10-29T21:08:51.343Z,98492.92
2022-10-29T21:11:20.959Z,98482.67
2022-10-29T21:13:49.547Z,98490.03
2022-10-29T21:16:28.084Z,98479.15
2022-10-29T21:18:58.753Z,98482.90
2022-10-29T21:21:29.048Z,98482.10
2022-10-29T21:23:57.780Z,98479.29
2022-10-29T21:26:27.966Z,98476.11
2022-10-29T21:28:56.865Z,98479.92
2022-10-29T21:31:24.885Z,98473.48
2022-10-29T21:33:55.209Z,98468.52
2022-10-29T21:36:23.694Z,98467.92
2022-10-29T21:38:51.848Z,98460.96
2022-10-29T21:41:19.737Z,98459.88
2022-10-29T21:43:47.633Z,98459.34
2022-10-29T21:46:15.517Z,98456.33
2022-10-29T21:48:43.372Z,98452.70
2022-10-29T21:51:13.879Z,98442.66
2022-10-29T21:53:41.799Z,98430.77
2022-10-29T21:56:12.865Z,98429.83
2022-10-29T21:58:41.381Z,98432.47
2022-10-29T22:01:13.893Z,98425.98
2022-10-29T22:03:43.944Z,98421.45
2022-10-29T22:06:15.340Z,98418.86
2022-10-29T22:08:44.669Z,98409.91
2022-10-29T22:11:13.975Z,98408.69
2022-10-29T22:13:44.454Z,98410.20
2022-10-29T22:16:12.677Z,98408.65
2022-10-29T22:18:40.828Z,98405.63
2022-10-29T22:21:14.660Z,98410.38
2022-10-29T22:23:52.148Z,98411.16
2022-10-29T22:26:26.173Z,98410.94
2022-10-29T22:28:54.248Z,98409.64
2022-10-29T22:31:23.967Z,98405.48
2022-10-29T22:33:52.087Z,98404.52
2022-10-29T22:36:22.799Z,98403.84
2022-10-29T22:38:59.505Z,98408.59
2022-10-29T22:41:29.050Z,98413.67
2022-10-29T22:44:01.073Z,98415.24
2022-10-29T22:46:30.229Z,98410.23
2022-10-29T22:48:58.479Z,98411.50
2022-10-29T22:51:28.423Z,98409.79
2022-10-29T22:53:56.511Z,98405.91
2022-10-29T22:56:30.836Z,98404.09
2022-10-29T22:58:59.793Z,98400.08
2022-10-29T23:01:31.169Z,98394.55
2022-10-29T23:03:59.533Z,98391.34
2022-10-29T23:06:29.453Z,98390.46
2022-10-29T23:08:58.719Z,98387.59
2022-10-29T23:11:28.801Z,98392.31
2022-10-29T23:13:58.997Z,98392.18
2022-10-29T23:16:29.115Z,98396.80
2022-10-29T23:18:59.734Z,98392.92
2022-10-29T23:21:28.773Z,98397.46
2022-10-29T23:23:57.219Z,98394.98
2022-10-29T23:26:26.267Z,98390.17
2022-10-29T23:28:54.095Z,98391.28
2022-10-29T23:31:27.976Z,98388.87
2022-10-29T23:33:57.826Z,98384.63
2022-10-29T23:36:27.821Z,98383.61
2022-10-29T23:38:56.666Z,98387.40
2022-10-29T23:41:25.688Z,98400.39
2022-10-29T23:43:54.021Z,98401.86
2022-10-29T23:46:21.969Z,98398.40
2022-10-29T23:48:50.117Z,98396.48
2022-10-29T23:51:18.194Z,98394.05
2022-10-29T23:53:46.096Z,98388.48
2022-10-29T23:56:13.913Z,98387.30
2022-10-29T23:58:41.720Z,98380.29
